• Join FlightAware (Why Join?)
  • Login
  • US Flag 
11:17AM EDT


 

Airport Tracker/Info


-or-


 

Live Flight TrackerFlight Track Log ✈ QFA1031 ✈ 04-Aug-2013 ✈ YBRM / BME - YBBN / BNE

Flight Track Log - Related Links

Times and Time Zones

All times are in EDT time to prevent confusion due to time zone crossing. See the QFA1031 flight status page for this flight to view local times or setup timezone preferences in your user account.

Time Position Orientation Groundspeed Altitude Reporting Facility
EDT Latitude Longitude Course Direction KTS MPH feet Rate Location/Type
12:36AM -17.9496 122.2277 120° Southeast 37,000  Level Aus ATC (Calculated)
12:36AM -17.9946 122.3094 120° Southeast 37,000  Level Aus ATC (Calculated)
12:37AM -17.9946 122.3094 120° Southeast 37,000  Level Aus ATC (Calculated)
12:38AM -18.0730 122.4516 120° Southeast  Level FlightAware Approximate
12:39AM -18.1093 122.5175 120° Southeast  Level FlightAware Approximate
12:39AM -18.1251 122.5468 120° Southeast 37,000  Level Aus ATC (Calculated)
12:40AM -18.1251 122.5468 120° Southeast 37,000  Level Aus ATC (Calculated)
12:42AM -18.2386 122.7536 120° Southeast  Level FlightAware Approximate
12:42AM -18.2824 122.8342 120° Southeast 37,000  Level Aus ATC (Calculated)
12:43AM -18.2955 122.8575 120° Southeast  Level FlightAware Approximate
12:44AM -18.3658 122.9867 120° Southeast  Level FlightAware Approximate
12:44AM -18.3854 123.0231 120° Southeast 37,000  Level Aus ATC (Calculated)
12:45AM -18.4475 123.1373 120° Southeast 37,000  Level Aus ATC (Calculated)
12:46AM -18.4687 123.1757 120° Southeast  Level FlightAware Approximate
12:47AM -18.5307 123.2901 120° Southeast  Level FlightAware Approximate
12:47AM -18.5348 123.2980 120° Southeast 37,000  Level Aus ATC (Calculated)
12:48AM -18.5874 123.3943 120° Southeast  Level FlightAware Approximate
12:48AM -18.6138 123.4439 120° Southeast 37,000  Level Aus ATC (Calculated)
12:49AM -18.6614 123.5320 120° Southeast 37,000  Level Aus ATC (Calculated)
12:50AM -18.7061 123.6147 120° Southeast 37,000  Level Aus ATC (Calculated)
12:51AM -18.7479 123.6923 120° Southeast 37,000  Level Aus ATC (Calculated)
12:53AM -18.8296 123.8941 119° Southeast  Level Estimated
12:53AM -18.8653 123.9107 120° Southeast 37,000  Level Aus ATC (Calculated)
12:54AM -18.9605 124.0883 120° Southeast 37,000  Level Aus ATC (Calculated)
12:56AM -19.0435 124.2426 120° Southeast  Level FlightAware Approximate
12:56AM -19.0378 124.2328 120° Southeast 37,000  Level Aus ATC (Calculated)
12:58AM -19.1502 124.4425 120° Southeast  Level FlightAware Approximate
12:59AM -19.2068 124.5483 120° Southeast  Level FlightAware Approximate
01:00AM -19.2633 124.6543 120° Southeast  Level FlightAware Approximate
01:00AM -19.2464 124.6248 119° Southeast 37,000  Level Aus ATC (Calculated)
01:01AM -19.3088 124.7426 119° Southeast 37,000  Level Aus ATC (Calculated)
01:02AM -19.3653 124.8486 119° Southeast  Level FlightAware Approximate
01:02AM -19.3712 124.8605 119° Southeast 37,000  Level Aus ATC (Calculated)
01:04AM -19.4745 125.0551 119° Southeast  Level FlightAware Approximate
01:05AM -19.5308 125.1613 119° Southeast  Level FlightAware Approximate
01:06AM -19.5872 125.2681 119° Southeast  Level FlightAware Approximate
01:07AM -19.6436 125.3749 119° Southeast  Level FlightAware Approximate
01:07AM -19.6841 125.4514 119° Southeast 37,000  Level Aus ATC (Calculated)
01:09AM -19.7878 125.6485 119° Southeast  Level FlightAware Approximate
01:10AM -19.8437 125.7552 119° Southeast  Level FlightAware Approximate
01:11AM -19.8995 125.8619 119° Southeast  Level FlightAware Approximate
01:12AM -19.9553 125.9687 119° Southeast  Level FlightAware Approximate
01:12AM -19.9951 126.0446 119° Southeast 37,000  Level Aus ATC (Calculated)
01:13AM -20.0394 126.1295 119° Southeast 37,000  Level Aus ATC (Calculated)
01:13AM -20.0836 126.2145 119° Southeast 37,000  Level Aus ATC (Calculated)
01:15AM -20.1401 126.3233 119° Southeast  Level FlightAware Approximate
01:16AM -20.1956 126.4305 119° Southeast  Level FlightAware Approximate
01:17AM -20.2511 126.5377 119° Southeast  Level FlightAware Approximate
01:18AM -20.3064 126.6450 119° Southeast  Level FlightAware Approximate
01:18AM -20.3126 126.6569 119° Southeast 37,000  Level Aus ATC (Calculated)
01:18AM -20.3778 126.7835 119° Southeast 37,000  Level Aus ATC (Calculated)
01:19AM -20.3679 126.7642 119° Southeast  Level FlightAware Approximate
01:20AM -20.4394 126.9035 119° Southeast  Level FlightAware Approximate
01:21AM -20.4946 127.0110 119° Southeast  Level FlightAware Approximate
01:22AM -20.5497 127.1187 119° Southeast  Level FlightAware Approximate
01:23AM -20.6047 127.2264 119° Southeast  Level FlightAware Approximate
01:23AM -20.6701 127.3546 119° Southeast 37,000  Level Aus ATC (Calculated)
01:24AM -20.6597 127.3342 119° Southeast  Level FlightAware Approximate
01:25AM -20.7314 127.4751 119° Southeast  Level FlightAware Approximate
01:26AM -20.7862 127.5831 119° Southeast  Level FlightAware Approximate
01:27AM -20.8409 127.6911 118° Southeast  Level FlightAware Approximate
01:28AM -20.8956 127.7992 118° Southeast  Level FlightAware Approximate
01:28AM -20.9605 127.9279 118° Southeast 37,000  Level Aus ATC (Calculated)
01:29AM -20.9502 127.9074 118° Southeast  Level FlightAware Approximate
01:30AM -21.0223 128.0507 118° Southeast  Level FlightAware Approximate
01:31AM -21.0767 128.1591 118° Southeast  Level FlightAware Approximate
01:32AM -21.1311 128.2675 118° Southeast  Level FlightAware Approximate
01:32AM -21.1531 128.3114 118° Southeast 37,000  Level Aus ATC (Calculated)
01:33AM -21.2073 128.4199 118° Southeast  Level FlightAware Approximate
01:33AM -21.2490 128.5034 118° Southeast 37,000  Level Aus ATC (Calculated)
01:34AM -21.2616 128.5286 118° Southeast  Level FlightAware Approximate
01:35AM -21.2939 128.6346 117° Southeast  Level Estimated
01:36AM -21.3483 128.7432 118° Southeast  Level FlightAware Approximate
01:37AM -21.4026 128.8519 118° Southeast  Level FlightAware Approximate
01:38AM -21.4569 128.9607 118° Southeast  Level FlightAware Approximate
01:38AM -21.5355 129.0812 118° Southeast 37,000  Level Aus ATC (Calculated)
01:39AM -21.5111 129.0695 118° Southeast  Level FlightAware Approximate
01:40AM -21.5974 129.2067 118° Southeast  Level FlightAware Approximate
01:41AM -21.6511 129.3159 118° Southeast  Level FlightAware Approximate
01:42AM -21.7047 129.4253 118° Southeast  Level FlightAware Approximate
01:43AM -21.7582 129.5347 118° Southeast  Level FlightAware Approximate
01:43AM -21.8515 129.7257 118° Southeast 37,000  Level Aus ATC (Calculated)
01:44AM -21.8117 129.6442 118° Southeast  Level FlightAware Approximate
01:45AM -21.9129 129.8518 118° Southeast  Level FlightAware Approximate
01:45AM -21.9144 129.8550 118° Southeast 37,000  Level Aus ATC (Calculated)
01:46AM -21.9661 129.9615 118° Southeast  Level FlightAware Approximate
01:47AM -22.0093 130.0507 118° Southeast  Level FlightAware Approximate
01:48AM -22.0625 130.1606 118° Southeast  Level FlightAware Approximate
01:48AM -22.1025 130.2434 117° Southeast 37,000  Level Aus ATC (Calculated)
01:49AM -22.1155 130.2706 118° Southeast  Level FlightAware Approximate
01:50AM -22.1731 130.3901 117° Southeast  Level FlightAware Approximate
01:51AM -22.2260 130.5002 117° Southeast  Level FlightAware Approximate
01:52AM -22.2789 130.6105 117° Southeast  Level FlightAware Approximate
01:53AM -22.3316 130.7208 117° Southeast  Level FlightAware Approximate
01:53AM -22.3982 130.8604 117° Southeast 37,000  Level Aus ATC (Calculated)
01:54AM -22.3843 130.8311 117° Southeast  Level FlightAware Approximate
01:55AM -22.4727 131.0169 117° Southeast  Level FlightAware Approximate
01:55AM -22.5520 131.1840 117° Southeast 461 531 37,000  Level FlightAware
01:56AM -22.5252 131.1275 117° Southeast  Level FlightAware Approximate
01:56AM -22.5770 131.2380 117° Southeast 461 531 37,000  Level FlightAware
01:56AM -22.6190 131.3270 117° Southeast 461 531 37,000  Level FlightAware
01:57AM -22.6550 131.4030 117° Southeast 461 531 37,000  Level FlightAware
01:58AM -22.6900 131.4770 117° Southeast 461 531 37,000  Level FlightAware
01:58AM -22.7200 131.5390 118° Southeast 460 529 37,000  Level FlightAware
01:59AM -22.7130 131.5257 117° Southeast 37,000  Level Aus ATC (Calculated)
01:59AM -22.7540 131.6130 118° Southeast 460 529 37,000  Level FlightAware
01:59AM -22.7900 131.6890 117° Southeast 460 529 37,000  Level FlightAware
02:00AM -22.8210 131.7550 117° Southeast 460 529 37,000  Level FlightAware
02:01AM -22.8570 131.8340 116° Southeast 460 529 37,000  Level FlightAware
02:01AM -22.8920 131.9070 118° Southeast 460 529 37,000  Level FlightAware
02:02AM -22.9220 131.9720 117° Southeast 460 529 37,000  Level FlightAware
02:02AM -22.9570 132.0480 117° Southeast 460 529 37,000  Level FlightAware
02:03AM -22.9830 132.1030 117° Southeast 461 531 37,000  Level FlightAware
02:03AM -22.9733 132.0824 117° Southeast 37,000  Level Aus ATC (Calculated)
02:03AM -23.0230 132.1890 117° Southeast 460 529 37,000  Level FlightAware
02:04AM -23.0570 132.2630 117° Southeast 459 528 37,000  Level FlightAware
02:05AM -23.0890 132.3310 117° Southeast 459 528 37,000  Level FlightAware
02:05AM -23.1260 132.4110 117° Southeast 460 529 37,000  Level FlightAware
02:06AM -23.1580 132.4810 116° Southeast 461 531 37,000  Level FlightAware
02:06AM -23.1920 132.5550 117° Southeast 462 532 37,000  Level FlightAware
02:07AM -23.2240 132.6250 116° Southeast 463 533 37,000  Level FlightAware
02:08AM -23.2590 132.7010 117° Southeast 464 534 37,000  Level FlightAware
02:08AM -23.2573 132.6972 117° Southeast 37,000  Level Aus ATC (Calculated)
02:08AM -23.2900 132.7680 117° Southeast 465 535 37,000  Level FlightAware
02:09AM -23.3260 132.8470 117° Southeast 466 536 37,000  Level FlightAware
02:09AM -23.3590 132.9190 117° Southeast 468 539 37,000  Level FlightAware
02:10AM -23.3930 132.9930 117° Southeast 469 540 37,000  Level FlightAware
02:10AM -23.4240 133.0630 116° Southeast 469 540 37,000  Level FlightAware
02:11AM -23.4490 133.1160 117° Southeast 470 541 37,000  Level FlightAware
02:12AM -23.4880 133.2020 116° Southeast 469 540 37,000  Level FlightAware
02:12AM -23.5300 133.2940 116° Southeast 469 540 37,000  Level FlightAware
02:13AM -23.5610 133.3620 116° Southeast 467 537 37,000  Level FlightAware
02:13AM -23.5920 133.4330 115° Southeast 466 536 37,000  Level FlightAware
02:13AM -23.5643 133.3709 116° Southeast 37,000  Level Aus ATC (Calculated)
02:14AM -23.6270 133.5090 115° Southeast 464 534 37,000  Level FlightAware
02:14AM -23.6560 133.5730 116° Southeast 464 534 37,000  Level FlightAware
02:15AM -23.6880 133.6450 116° Southeast 462 532 37,000  Level FlightAware
02:16AM -23.7250 133.7280 116° Southeast 461 531 37,000  Level FlightAware
02:16AM -23.6914 133.6525 116° Southeast 37,000  Level Aus ATC (Calculated)
02:16AM -23.7580 133.7990 117° Southeast 460 529 37,000  Level FlightAware
02:17AM -23.7900 133.8770 117° Southeast 467 537 37,000  Level FlightAware
02:17AM -23.7674 133.8218 109° East 37,000  Level Aus ATC (Calculated)
02:17AM -23.8130 133.9630 117° Southeast 477 549 37,000  Level FlightAware
02:18AM -23.8310 134.0390 105° East 477 549 37,000  Level FlightAware
02:19AM -23.8500 134.1170 105° East 477 549 37,000  Level FlightAware
02:19AM -23.8680 134.1930 105° East 477 549 37,000  Level FlightAware
02:20AM -23.8890 134.2820 104° East 478 550 37,000  Level FlightAware
02:20AM -23.9090 134.3660 105° East 478 550 37,000  Level FlightAware
02:21AM -23.9280 134.4460 105° East 478 550 37,000  Level FlightAware
02:22AM -23.9460 134.5210 105° East 478 550 37,000  Level FlightAware
02:22AM -23.9421 134.5066 105° East 37,000  Level Aus ATC (Calculated)
02:22AM -23.9670 134.6110 105° East 480 552 37,000  Level FlightAware
02:23AM -23.9860 134.6950 104° East 480 552 37,000  Level FlightAware
02:23AM -24.0050 134.7740 105° East 480 552 37,000  Level FlightAware
02:24AM -24.0250 134.8610 104° East 481 554 37,000  Level FlightAware
02:24AM -24.0430 134.9350 105° East 481 554 37,000  Level FlightAware
02:25AM -24.0640 135.0270 104° East 482 555 37,000  Level FlightAware
02:26AM -24.0830 135.1100 104° East 483 556 37,000  Level FlightAware
02:26AM -24.1000 135.1840 104° East 483 556 37,000  Level FlightAware
02:27AM -24.1200 135.2720 104° East 482 555 37,000  Level FlightAware
02:27AM -24.1097 135.2264 104° East 37,000  Level Aus ATC (Calculated)
02:27AM -24.1097 135.2264 104° East 37,000  Level Aus ATC (Calculated)
02:27AM -24.1400 135.3590 104° East 481 554 37,000  Level FlightAware
02:28AM -24.1304 135.3165 104° East 37,000  Level Aus ATC (Calculated)
02:28AM -24.1570 135.4340 104° East 479 551 37,000  Level FlightAware
02:29AM -24.1770 135.5210 104° East 478 550 37,000  Level FlightAware
02:29AM -24.1716 135.4968 104° East 37,000  Level Aus ATC (Calculated)
02:29AM -24.1960 135.6010 104° East 477 549 37,000  Level FlightAware
02:30AM -24.2150 135.6880 103° East 475 547 37,000  Level FlightAware
02:30AM -24.2330 135.7640 105° East 475 547 37,000  Level FlightAware
02:31AM -24.2510 135.8470 103° East 473 544 37,000  Level FlightAware
02:32AM -24.2710 135.9330 104° East 472 543 37,000  Level FlightAware
02:32AM -24.2739 135.9481 104° East 37,000  Level Aus ATC (Calculated)
02:32AM -24.2910 136.0250 104° East 472 543 37,000  Level FlightAware
02:33AM -24.3120 136.1180 104° East 472 543 37,000  Level FlightAware
02:33AM -24.3290 136.1960 103° East 472 543 37,000  Level FlightAware
02:34AM -24.3490 136.2840 104° East 474 545 37,000  Level FlightAware
02:35AM -24.3640 136.3500 104° East 476 548 37,000  Level FlightAware
02:35AM -24.3840 136.4410 104° East 476 548 37,000  Level FlightAware
02:35AM -24.3747 136.4001 104° East 37,000  Level Aus ATC (Calculated)
02:36AM -24.4040 136.5330 104° East 477 549 37,000  Level FlightAware
02:36AM -24.4220 136.6120 104° East 478 550 37,000  Level FlightAware
02:37AM -24.4346 136.6716 104° East 37,000  Level Aus ATC (Calculated)
02:37AM -24.4380 136.6870 103° East 479 551 37,000  Level FlightAware
02:37AM -24.4545 136.7622 102° East 37,000  Level Aus ATC (Calculated)
02:38AM -24.4590 136.7860 103° East 480 552 37,000  Level FlightAware
02:38AM -24.4780 136.8710 104° East 480 552 37,000  Level FlightAware
02:39AM -24.4950 136.9470 104° East 481 554 37,000  Level FlightAware
02:39AM -24.5150 137.0400 103° East 482 555 37,000  Level FlightAware
02:40AM -24.5310 137.1140 103° East 480 552 37,000  Level FlightAware
02:41AM -24.5530 137.2150 103° East 477 549 37,000  Level FlightAware
02:41AM -24.5651 137.2736 103° East 37,000  Level Aus ATC (Calculated)
02:41AM -24.5773 137.3305 284° West 37,000  Level Aus ATC (Calculated)
02:41AM -24.5720 137.3070 103° East 477 549 37,000  Level FlightAware
02:42AM -24.5910 137.3960 103° East 477 549 37,000  Level FlightAware
02:42AM -24.6137 137.5012 284° West 37,000  Level Aus ATC (Calculated)
02:42AM -24.6070 137.4720 103° East 477 549 37,000  Level FlightAware
02:43AM -24.6290 137.5730 103° East 477 549 37,000  Level FlightAware
02:44AM -24.6613 137.7260 284° West 37,000  Level Aus ATC (Calculated)
02:44AM -24.6520 137.6840 103° East 477 549 37,000  Level FlightAware
02:45AM -24.6680 137.7580 103° East 477 549 37,000  Level FlightAware
02:45AM -24.6830 137.8310 103° East 477 549 37,000  Level FlightAware
02:46AM -24.6990 137.9070 103° East 477 549 37,000  Level FlightAware
02:46AM -24.7140 137.9800 103° East 477 549 37,000  Level FlightAware
02:47AM -24.7300 138.0520 104° East 477 549 37,000  Level FlightAware
02:48AM -24.7450 138.1250 103° East 477 549 37,000  Level FlightAware
02:48AM -24.7600 138.1990 103° East 477 549 37,000  Level FlightAware
02:49AM -24.7967 138.3749 282° West 37,000  Level Aus ATC (Calculated)
02:49AM -24.7760 138.2720 104° East 477 549 37,000  Level FlightAware
02:49AM -24.7910 138.3440 104° East 477 549 37,000  Level FlightAware
02:50AM -24.8060 138.4160 103° East 477 549 37,000  Level FlightAware
02:51AM -24.8210 138.4890 103° East 477 549 37,000  Level FlightAware
02:51AM -24.8360 138.5610 103° East 477 549 37,000  Level FlightAware
02:52AM -24.8510 138.6340 103° East 477 549 37,000  Level FlightAware
02:52AM -24.8670 138.7070 104° East 477 549 37,000  Level FlightAware
02:53AM -24.8820 138.7790 103° East 477 549 37,000  Level FlightAware
02:54AM -24.8970 138.8520 103° East 477 549 37,000  Level FlightAware
02:54AM -24.9401 139.0795 281° West 37,000  Level Aus ATC (Calculated)
02:54AM -24.9120 138.9240 103° East 477 549 37,000  Level FlightAware
02:55AM -24.9280 138.9990 103° East 477 549 37,000  Level FlightAware
02:55AM -24.9430 139.0710 103° East 477 549 37,000  Level FlightAware
02:56AM -24.9580 139.1440 103° East 477 549 37,000  Level FlightAware
02:57AM -24.9730 139.2160 103° East 477 549 37,000  Level FlightAware
02:57AM -24.9890 139.2890 104° East 477 549 37,000  Level FlightAware
02:58AM -25.0040 139.3620 103° East 477 549 37,000  Level FlightAware
02:58AM -25.0190 139.4340 103° East 477 549 37,000 120 Level FlightAware
02:59AM -25.0803 139.7856 102° East 37,000 120 Level Aus ATC (Calculated)
03:01AM -25.1232 140.0059 102° East  Level FlightAware Approximate
03:01AM -25.1333 140.0577 102° East 37,000  Level Aus ATC (Calculated)
03:03AM -25.1806 140.3028 102° East  Level FlightAware Approximate
03:04AM -25.2043 140.4265 102° East  Level FlightAware Approximate
03:04AM -25.2171 140.4934 102° East 37,000  Level Aus ATC (Calculated)
03:06AM -25.2616 140.7279 102° East  Level FlightAware Approximate
03:06AM -25.2893 140.8751 102° East 37,000  Level Aus ATC (Calculated)
03:07AM -25.2861 140.8583 102° East  Level FlightAware Approximate
03:08AM -25.3154 141.0143 102° East  Level FlightAware Approximate
03:08AM -25.3302 141.0935 102° East 37,000  Level Aus ATC (Calculated)
03:09AM -25.3403 141.1481 102° East 39,000 840 Climbing Aus ATC (Calculated)
03:10AM -25.3860 141.3960 102° East 450 518 39,000  Level FlightAware
03:11AM -25.3940 141.4400 101° East 465 535 39,000  Level FlightAware
03:12AM -25.4120 141.5420 101° East 465 535 39,000  Level FlightAware
03:12AM -25.4250 141.6150 101° East 465 535 39,000  Level FlightAware
03:13AM -25.4490 141.7390 102° East 472 543 39,000  Level FlightAware
03:13AM -25.4640 141.8230 101° East 472 543 39,000  Level FlightAware
03:13AM -25.4742 141.8795 100° East 39,000  Level Aus ATC (Calculated)
03:14AM -25.4790 141.9080 101° East 474 545 39,000  Level FlightAware
03:15AM -25.4950 141.9940 101° East 474 545 39,000  Level FlightAware
03:15AM -25.5070 142.0630 101° East 474 545 39,000  Level FlightAware
03:16AM -25.5270 142.1750 101° East 473 544 39,000  Level FlightAware
03:16AM -25.5440 142.2700 101° East 474 545 39,000  Level FlightAware
03:17AM -25.5580 142.3460 102° East 475 547 39,000  Level FlightAware
03:18AM -25.5750 142.4470 101° East 475 547 39,000  Level FlightAware
03:18AM -25.5890 142.5220 102° East 474 545 39,000  Level FlightAware
03:18AM -25.6144 142.6690 281° West 39,000  Level Aus ATC (Calculated)
03:19AM -25.6040 142.6100 101° East 473 544 39,000  Level FlightAware
03:19AM -25.6170 142.6850 101° East 474 545 39,000  Level FlightAware
03:20AM -25.6380 142.8040 101° East 475 547 39,000  Level FlightAware
03:21AM -25.6550 142.9000 101° East 475 547 39,000  Level FlightAware
03:22AM -25.6710 142.9960 100° East 476 548 39,000  Level FlightAware
03:22AM -25.6840 143.0730 101° East 476 548 39,000  Level FlightAware
03:22AM -25.6860 143.0820 104° East 476 548 39,000  Level FlightAware
03:23AM -25.7140 143.2450 101° East 477 549 39,000  Level FlightAware
03:23AM -25.7407 143.4038 281° West 39,000  Level Aus ATC (Calculated)
03:24AM -25.7280 143.3290 100° East 477 549 39,000  Level FlightAware
03:24AM -25.7430 143.4170 100° East 476 548 39,000  Level FlightAware
03:25AM -25.7560 143.4920 101° East 476 548 39,000  Level FlightAware
03:26AM -25.7700 143.5790 100° East 476 548 39,000  Level FlightAware
03:26AM -25.7850 143.6660 101° East 476 548 39,000  Level FlightAware
03:27AM -25.7990 143.7530 100° East 476 548 39,000  Level FlightAware
03:27AM -25.8120 143.8280 101° East 475 547 39,000  Level FlightAware
03:28AM -25.8270 143.9160 101° East 477 549 39,000  Level FlightAware
03:28AM -25.8633 144.1400 280° West 39,000  Level Aus ATC (Calculated)
03:29AM -25.8410 144.0050 101° East 477 549 39,000  Level FlightAware
03:29AM -25.8540 144.0790 101° East 478 550 39,000  Level FlightAware
03:30AM -25.8680 144.1700 100° East 480 552 39,000  Level FlightAware
03:30AM -25.8820 144.2530 101° East 481 554 39,000  Level FlightAware
03:31AM -25.8970 144.3460 100° East 483 556 39,000  Level FlightAware
03:31AM -25.9100 144.4240 101° East 483 556 39,000  Level FlightAware
03:31AM -25.9370 144.5938 280° West 39,000  Level Aus ATC (Calculated)
03:32AM -25.9240 144.5100 101° East 484 557 39,000  Level FlightAware
03:33AM -25.9370 144.5950 100° East 485 558 39,000  Level FlightAware
03:33AM -25.9520 144.6870 100° East 485 558 39,000  Level FlightAware
03:34AM -25.9650 144.7660 100° East 485 558 39,000  Level FlightAware
03:34AM -25.9938 144.9516 280° West 39,000  Level Aus ATC (Calculated)
03:34AM -25.9790 144.8540 100° East 485 558 39,000  Level FlightAware
03:35AM -25.9910 144.9330 100° East 484 557 39,000  Level FlightAware
03:36AM -26.0040 145.0190 100° East 483 556 39,000  Level FlightAware
03:36AM -26.0180 145.1090 100° East 483 556 39,000  Level FlightAware
03:37AM -26.0320 145.1960 100° East 482 555 39,000  Level FlightAware
03:37AM -26.0460 145.2850 100° East 482 555 39,000  Level FlightAware
03:38AM -26.0580 145.3630 100° East 481 554 39,000  Level FlightAware
03:38AM -26.0720 145.4510 100° East 480 552 39,000  Level FlightAware
03:39AM -26.1099 145.7022 279° West 39,000  Level Aus ATC (Calculated)
03:39AM -26.0900 145.5700 100° East 479 551 39,000  Level FlightAware
03:40AM -26.1030 145.6580 100° East 479 551 39,000  Level FlightAware
03:40AM -26.1150 145.7380 100° East 479 551 39,000  Level FlightAware
03:40AM -26.1477 145.9527 279° West 39,000  Level Aus ATC (Calculated)
03:41AM -26.1290 145.8280 100° East 480 552 39,000  Level FlightAware
03:42AM -26.1400 145.9030 99° East 481 554 39,000  Level FlightAware
03:42AM -26.1540 145.9960 100° East 482 555 39,000  Level FlightAware
03:43AM -26.1670 146.0830 99° East 483 556 39,000  Level FlightAware
03:43AM -26.1790 146.1620 100° East 483 556 39,000  Level FlightAware
03:44AM -26.2220 146.4542 279° West 39,000  Level Aus ATC (Calculated)
03:44AM -26.1930 146.2550 100° East 485 558 39,000  Level FlightAware
03:44AM -26.2040 146.3340 100° East 486 559 39,000  Level FlightAware
03:45AM -26.2180 146.4230 100° East 487 560 39,000  Level FlightAware
03:46AM -26.2300 146.5110 99° East 488 562 39,000  Level FlightAware
03:47AM -26.2470 146.6230 100° East 488 562 39,000  Level FlightAware
03:47AM -26.2570 146.7000 98° East 488 562 39,000  Level FlightAware
03:48AM -26.2680 146.7760 99° East 488 562 39,000  Level FlightAware
03:49AM -26.2830 146.8770 99° East 488 562 39,000  Level FlightAware
03:49AM -26.3214 147.1448 279° West 39,000  Level Aus ATC (Calculated)
03:49AM -26.2930 146.9530 99° East 488 562 39,000  Level FlightAware
03:50AM -26.3040 147.0290 99° East 488 562 39,000  Level FlightAware
03:50AM -26.3567 147.3962 279° West 39,000  Level Aus ATC (Calculated)
03:50AM -26.3150 147.1080 99° East 488 562 39,000  Level FlightAware
03:51AM -26.3260 147.1840 99° East 488 562 39,000  Level FlightAware
03:52AM -26.3370 147.2600 99° East 488 562 39,000 120 Level FlightAware
03:52AM -26.3518 147.3851 99° East 491 565 39,100  Climbing Aus ATC (RADAR)
03:52AM -26.3480 147.3380 99° East 488 562 39,000 -120 Descending FlightAware
03:53AM -26.3820 147.5820 99° East 498 573 39,000  Level FlightAware
03:54AM -26.3920 147.6530 99° East 499 574 39,000  Level FlightAware
03:54AM -26.4010 147.7310 97° East 499 574 39,000 60 Level FlightAware
03:55AM -26.4206 147.8697 97° East 498 573 39,100  Climbing Aus ATC (RADAR)
03:55AM -26.4110 147.8090 97° East 499 574 39,000 -180 Descending FlightAware
03:55AM -26.4210 147.8880 98° East 499 574 39,000  Level FlightAware
03:57AM -26.4594 148.1511 98° East 499 574 39,100  Climbing Aus ATC (RADAR)
03:58AM -26.4800 148.3051 99° East 502 578 39,100  Level Aus ATC (RADAR)
03:58AM -26.4953 148.4207 98° East 501 577 39,100  Level Aus ATC (RADAR)
03:59AM -26.5070 148.5104 98° East 502 578 39,100  Level Aus ATC (RADAR)
04:00AM -26.5236 148.6386 98° East 501 577 39,100  Level Aus ATC (RADAR)
04:01AM -26.5425 148.7800 99° East 501 577 39,100  Level Aus ATC (RADAR)
04:02AM -26.5760 148.9431 103° East 497 572 39,100  Level Aus ATC (RADAR)
04:03AM -26.6062 149.0948 103° East 499 574 39,100  Level Aus ATC (RADAR)
04:03AM -26.6299 149.2080 103° East 498 573 39,100  Level Aus ATC (RADAR)
04:04AM -26.6477 149.2946 103° East 490 564 39,100  Level Aus ATC (RADAR)
04:05AM -26.6722 149.4182 103° East 482 555 39,100  Level Aus ATC (RADAR)
04:06AM -26.7019 149.5668 103° East 488 562 39,100  Level Aus ATC (RADAR)
04:07AM -26.7270 149.6909 103° East 488 562 39,100  Level Aus ATC (RADAR)
04:08AM -26.7590 149.8526 103° East 489 563 39,100  Level Aus ATC (RADAR)
04:09AM -26.7808 149.9647 102° East 491 565 39,100  Level Aus ATC (RADAR)
04:09AM -26.7978 150.0521 102° East 490 564 39,100 -120 Level Aus ATC (RADAR)
04:09AM -26.8080 150.1030 102° East 496 571 39,000 -120 Descending FlightAware
04:10AM -26.8250 150.1870 103° East 496 571 39,000  Level FlightAware
04:11AM -26.8410 150.2700 102° East 496 571 39,000  Level FlightAware
04:11AM -26.8600 150.3680 102° East 487 560 39,000  Level FlightAware
04:12AM -26.8750 150.4490 102° East 487 560 39,000  Level FlightAware
04:12AM -26.8943 150.5484 102° East 478 550 39,000 -720 Level Aus ATC (RADAR)
04:13AM -26.8980 150.5640 102° East 484 557 38,500 -2,220 Descending FlightAware
04:13AM -26.9110 150.6360 101° East 476 548 37,700 -1,500 Descending FlightAware
04:14AM -26.9270 150.7160 103° East 465 535 36,900 -960 Descending FlightAware
04:14AM -26.9450 150.8120 102° East 462 532 36,500 -600 Descending FlightAware
04:15AM -26.9610 150.8950 102° East 464 534 36,200 -480 Descending FlightAware
04:15AM -26.9740 150.9650 102° East 459 528 36,000 -1,140 Descending FlightAware
04:16AM -26.9920 151.0580 102° East 451 519 34,900 -1,500 Descending FlightAware
04:16AM -27.0020 151.1110 102° East 439 505 34,400 -1,080 Descending FlightAware
04:17AM -27.0151 151.1869 102° East 424 488 33,900 -1,200 Descending Aus ATC (RADAR)
04:17AM -27.0160 151.1880 102° East 424 488 33,700 -1,680 Descending FlightAware
04:18AM -27.0300 151.2630 102° East 414 476 32,900 -1,560 Descending FlightAware
04:18AM -27.0440 151.3360 102° East 407 468 31,900 -1,560 Descending FlightAware
04:19AM -27.0570 151.4060 102° East 397 457 31,100 -1,140 Descending FlightAware
04:19AM -27.0586 151.4147 102° East 394 453 31,200 -1,380 Climbing Aus ATC (RADAR)
04:19AM -27.0790 151.4730 102° East 382 440 30,300 -1,560 Descending FlightAware
04:19AM -27.0816 151.4799 102° East 383 441 30,300 -1,500 Level Aus ATC (RADAR)
04:20AM -27.1150 151.5410 121° Southeast 373 429 29,300 -1,620 Descending FlightAware
04:21AM -27.1410 151.5910 120° Southeast 369 425 28,500 -1,620 Descending FlightAware
04:21AM -27.1700 151.6470 120° Southeast 367 422 27,600 -1,140 Descending FlightAware
04:22AM -27.2000 151.7040 121° Southeast 354 407 27,200 -540 Descending FlightAware
04:22AM -27.2273 151.7569 121° Southeast 346 398 27,000 -540 Descending Aus ATC (RADAR)
04:22AM -27.2280 151.7590 121° Southeast 347 399 26,900 -660 Descending FlightAware
04:23AM -27.2570 151.8120 122° Southeast 343 395 26,600 -540 Descending FlightAware
04:23AM -27.2850 151.8670 120° Southeast 342 394 26,300 -540 Descending FlightAware
04:24AM -27.3130 151.9210 120° Southeast 346 398 26,000 -480 Descending FlightAware
04:25AM -27.3470 151.9860 121° Southeast 347 399 25,700 -480 Descending FlightAware
04:25AM -27.3780 152.0470 120° Southeast 348 400 25,400 -480 Descending FlightAware
04:26AM -27.4100 152.1080 121° Southeast 350 403 25,100 -480 Descending FlightAware
04:27AM -27.4390 152.1650 120° Southeast 352 405 24,800 -1,080 Descending FlightAware
04:27AM -27.4670 152.2180 120° Southeast 348 400 23,900 -1,500 Descending FlightAware
04:27AM -27.4702 152.2230 120° Southeast 340 391 23,900 -1,380 Level Aus ATC (RADAR)
04:28AM -27.4960 152.2730 121° Southeast 342 394 23,100 -1,440 Descending FlightAware
04:28AM -27.5230 152.3280 119° Southeast 336 387 22,300 -1,380 Descending FlightAware
04:29AM -27.5500 152.3780 121° Southeast 332 382 21,500 -1,320 Descending FlightAware
04:30AM -27.5750 152.4320 118° Southeast 338 389 20,800 -1,080 Descending FlightAware
04:30AM -27.5920 152.4950 118° Southeast 365 420 20,300 -660 Descending FlightAware
04:30AM -27.5931 152.4993 118° Southeast 347 399 20,400 -1,740 Climbing Aus ATC (RADAR)
04:31AM -27.6080 152.5610 105° East 367 422 19,300 -1,860 Descending FlightAware
04:31AM -27.6230 152.6210 106° East 361 415 18,300 -1,680 Descending FlightAware
04:32AM -27.6400 152.6870 106° East 353 406 17,400 -1,500 Descending FlightAware
04:32AM -27.6439 152.7445 106° East 336 387 16,700 -1,500 Descending Aus ATC (RADAR)
04:33AM -27.6410 152.7570 106° East 351 404 16,400 -1,680 Descending FlightAware
04:33AM -27.6250 152.8180 74° East 344 396 15,500 -1,620 Descending FlightAware
04:34AM -27.6080 152.8880 75° East 337 388 14,400 -1,560 Descending FlightAware
04:34AM -27.5940 152.9450 75° East 330 380 13,600 -1,500 Descending FlightAware
04:35AM -27.5810 152.9980 75° East 325 374 12,800 -1,500 Descending FlightAware
04:36AM -27.5660 153.0630 75° East 319 367 11,900 -1,500 Descending FlightAware
04:36AM -27.5570 153.1110 78° East 316 364 11,100 -1,620 Descending FlightAware
04:37AM -27.5420 153.1560 78° East 310 357 10,300 -1,380 Descending FlightAware
04:37AM -27.5409 153.1602 78° East 312 359 10,400 -1,800 Climbing Aus ATC (RADAR)
04:37AM -27.5310 153.1680 44° Northeast 307 353 10,000 -1,920 Descending FlightAware
04:37AM -27.5070 153.1840 31° Northeast 305 351 9,500 -1,380 Descending FlightAware
04:37AM -27.4830 153.2000 31° Northeast 304 350 9,100 -1,500 Descending FlightAware
04:38AM -27.4580 153.2160 30° Northeast 304 350 8,500 -1,680 Descending FlightAware
04:38AM -27.4340 153.2320 31° Northeast 302 348 8,000 -1,500 Descending FlightAware
04:38AM -27.4040 153.2510 29° Northeast 297 342 7,400 -1,440 Descending FlightAware
04:39AM -27.3740 153.2700 29° Northeast 296 341 6,800 -1,500 Descending FlightAware
04:39AM -27.3510 153.2850 30° Northeast 297 342 6,300 -1,500 Descending FlightAware
04:40AM -27.3210 153.3040 29° Northeast 296 341 5,700 -1,200 Descending FlightAware
04:40AM -27.2980 153.3200 32° Northeast 290 334 5,400 -780 Descending FlightAware
04:40AM -27.2730 153.3310 21° North 269 310 5,200 -420 Descending FlightAware
04:40AM -27.2630 153.3310 360° North 256 295 5,200 -960 Level FlightAware
04:41AM -27.2500 153.3250 338° Northwest 248 285 4,900 -1,500 Descending FlightAware
04:41AM -27.2410 153.3180 325° Northwest 242 278 4,700 -840 Descending FlightAware
04:41AM -27.2250 153.3040 322° Northwest 231 266 4,500 -540 Descending FlightAware
04:41AM -27.2120 153.2910 318° Northwest 216 249 4,400 -600 Descending FlightAware
04:41AM -27.2100 153.2860 294° West 212 244 4,300 -600 Descending FlightAware
04:42AM -27.2080 153.2810 294° West 208 239 4,300 -600 Level FlightAware
04:42AM -27.2080 153.2760 270° West 204 235 4,200 -1,020 Descending FlightAware
04:42AM -27.2100 153.2510 265° West 191 220 3,800 -960 Descending FlightAware
04:42AM -27.2120 153.2320 263° West 185 213 3,500 -1,080 Descending FlightAware
04:43AM -27.2180 153.2240 230° Southwest 183 211 3,300 -1,200 Descending FlightAware
04:43AM -27.2210 153.2220 211° Southwest 184 212 3,200 -1,140 Descending FlightAware
04:43AM -27.2260 153.2190 208° Southwest 186 214 3,100 -900 Descending FlightAware
04:43AM -27.2360 153.2130 208° Southwest 182 209 2,900 -900 Descending FlightAware
04:43AM -27.2520 153.2050 204° Southwest 176 203 2,600 -900 Descending FlightAware
04:44AM -27.2660 153.1970 207° Southwest 171 197 2,300 -960 Descending FlightAware
04:44AM -27.2830 153.1860 210° Southwest 167 192 1,900 -840 Descending FlightAware
04:44AM -27.2970 153.1790 204° Southwest 158 182 1,700 -780 Descending FlightAware
04:45AM -27.3100 153.1710 209° Southwest 150 173 1,400 -900 Descending FlightAware
04:45AM -27.3220 153.1650 204° Southwest 140 161 1,100 -840 Descending FlightAware
04:45AM -27.3350 153.1570 209° Southwest 138 159 800 -720 Descending FlightAware
04:46AM -27.3470 153.1500 207° Southwest 140 161 600 -780 Descending FlightAware
04:46AM -27.3600 153.1430 206° Southwest 145 167 300 -780 Descending FlightAware
04:46AM -27.3720 153.1360 207° Southwest 148 170 100 -600 Descending FlightAware
04:47AM -27.3830 153.1290 209° Southwest 130 150 -300 Descending FlightAware